Time;durP1;ratioP1;P1;durP2;ratioP2;P2;SDS_P1;SDS_P2;PMS_P1;PMS_P2;Temp;Humidity;BMP_temperature;BMP_pressure;BME280_temperature;BME280_humidity;BME280_pressure;Samples;Min_cycle;Max_cycle;Signal;HPM_P1;HPM_P2
2023/12/20 00:01:55;;;;;;;13.23;6.57;;;;;;;;;;5985538;23;20231;-85
2023/12/20 00:05:09;;;;;;;15.40;7.07;;;;;;;;;;5972990;23;20185;-86
2023/12/20 00:08:22;;;;;;;14.47;6.67;;;;;;;;;;5973872;24;20238;-88
2023/12/20 00:11:33;;;;;;;14.27;6.50;;;;;;;;;;5973328;23;20205;-89
2023/12/20 00:14:46;;;;;;;14.37;7.20;;;;;;;;;;5970031;23;20169;-88
2023/12/20 00:17:58;;;;;;;26.73;6.90;;;;;;;;;;5986694;23;20250;-90
2023/12/20 00:21:11;;;;;;;15.33;6.50;;;;;;;;;;5987031;23;20161;-88
2023/12/20 00:24:22;;;;;;;14.73;6.67;;;;;;;;;;5985278;23;20176;-87
2023/12/20 00:27:34;;;;;;;13.57;6.67;;;;;;;;;;5986029;24;20191;-87
2023/12/20 00:30:46;;;;;;;15.93;6.60;;;;;;;;;;5970473;24;20197;-87
2023/12/20 00:33:57;;;;;;;10.33;5.90;;;;;;;;;;5952936;24;20627;-88
2023/12/20 00:37:10;;;;;;;15.10;7.17;;;;;;;;;;5982286;24;20227;-86
2023/12/20 00:40:23;;;;;;;13.53;6.50;;;;;;;;;;5981905;24;20621;-88
2023/12/20 00:43:34;;;;;;;19.80;7.57;;;;;;;;;;5997351;23;20195;-86
2023/12/20 00:46:46;;;;;;;13.57;6.70;;;;;;;;;;5982538;24;20165;-87
2023/12/20 00:49:59;;;;;;;12.70;6.40;;;;;;;;;;5982911;24;20201;-89
2023/12/20 00:53:12;;;;;;;9.80;5.73;;;;;;;;;;5996954;23;20626;-88
2023/12/20 00:56:24;;;;;;;10.67;5.83;;;;;;;;;;5998495;23;20194;-86
2023/12/20 00:59:36;;;;;;;11.00;5.87;;;;;;;;;;5984248;23;20154;-87
2023/12/20 01:02:51;;;;;;;11.30;5.73;;;;;;;;;;5967973;23;20633;-89
2023/12/20 01:06:04;;;;;;;10.27;5.40;;;;;;;;;;5996656;23;20185;-91
2023/12/20 01:09:18;;;;;;;9.40;5.77;;;;;;;;;;5981467;23;20174;-88
2023/12/20 01:12:29;;;;;;;11.23;5.87;;;;;;;;;;5981681;23;20271;-91
2023/12/20 01:15:43;;;;;;;10.23;5.70;;;;;;;;;;5997949;23;20177;-89
2023/12/20 01:18:56;;;;;;;10.33;5.67;;;;;;;;;;5982901;24;20186;-89
2023/12/20 01:22:07;;;;;;;8.90;5.60;;;;;;;;;;5996947;23;20178;-92
2023/12/20 01:25:21;;;;;;;10.93;5.87;;;;;;;;;;5996479;23;20562;-90
2023/12/20 01:28:32;;;;;;;12.30;5.77;;;;;;;;;;5984432;23;20548;-87
2023/12/20 01:31:43;;;;;;;7.03;4.83;;;;;;;;;;5981418;24;20269;-94
2023/12/20 01:34:55;;;;;;;11.47;6.10;;;;;;;;;;5995326;23;20218;-87
2023/12/20 01:38:07;;;;;;;11.43;5.67;;;;;;;;;;5995733;23;20177;-87
2023/12/20 01:41:20;;;;;;;10.60;5.53;;;;;;;;;;6001431;23;20204;-88
2023/12/20 01:44:32;;;;;;;9.53;5.93;;;;;;;;;;5982707;24;20234;-87
2023/12/20 01:47:45;;;;;;;10.33;5.47;;;;;;;;;;5983414;23;20184;-88
2023/12/20 01:50:57;;;;;;;10.10;5.67;;;;;;;;;;5981416;23;20518;-87
2023/12/20 01:54:09;;;;;;;8.77;5.50;;;;;;;;;;5984741;24;20170;-89
2023/12/20 01:57:23;;;;;;;10.47;5.97;;;;;;;;;;5984598;23;20173;-89
2023/12/20 02:00:36;;;;;;;11.70;6.20;;;;;;;;;;5969196;23;20173;-87
2023/12/20 02:03:47;;;;;;;12.33;6.07;;;;;;;;;;5954750;23;20157;-88
2023/12/20 02:07:00;;;;;;;12.97;5.80;;;;;;;;;;5969832;23;20201;-92
2023/12/20 02:10:13;;;;;;;10.03;5.90;;;;;;;;;;5983223;24;20193;-87
2023/12/20 02:13:26;;;;;;;11.97;6.17;;;;;;;;;;5982989;24;20177;-87
2023/12/20 02:16:37;;;;;;;14.40;6.97;;;;;;;;;;5984931;24;20671;-90
2023/12/20 02:19:48;;;;;;;10.93;6.57;;;;;;;;;;5969686;24;20181;-90
2023/12/20 02:23:02;;;;;;;12.27;6.03;;;;;;;;;;5967352;24;20242;-90
2023/12/20 02:26:18;;;;;;;14.60;6.77;;;;;;;;;;5968807;24;20307;-88
2023/12/20 02:29:30;;;;;;;13.60;7.10;;;;;;;;;;5968797;24;20631;-89
2023/12/20 02:32:41;;;;;;;16.30;7.93;;;;;;;;;;5982898;24;20169;-87
2023/12/20 02:35:53;;;;;;;15.67;7.73;;;;;;;;;;5982423;24;20242;-89
2023/12/20 02:39:06;;;;;;;17.33;8.20;;;;;;;;;;5968380;24;20203;-88
2023/12/20 02:42:18;;;;;;;13.77;7.30;;;;;;;;;;5984824;23;20201;-88
2023/12/20 02:45:30;;;;;;;14.73;7.53;;;;;;;;;;5984189;24;20229;-89
2023/12/20 02:48:41;;;;;;;14.90;7.60;;;;;;;;;;5985288;24;20203;-91
2023/12/20 02:51:53;;;;;;;14.00;7.20;;;;;;;;;;5970762;24;20201;-90
2023/12/20 02:55:06;;;;;;;16.80;8.33;;;;;;;;;;5969003;23;20215;-86
2023/12/20 02:58:18;;;;;;;12.97;7.23;;;;;;;;;;5984935;24;20223;-88
2023/12/20 03:01:31;;;;;;;14.43;7.60;;;;;;;;;;5985019;24;20173;-89
2023/12/20 03:04:42;;;;;;;14.40;7.37;;;;;;;;;;5967919;24;20177;-88
2023/12/20 03:07:53;;;;;;;14.00;8.07;;;;;;;;;;5983299;24;20257;-87
2023/12/20 03:11:07;;;;;;;17.13;8.13;;;;;;;;;;5982715;24;20213;-86
2023/12/20 03:14:19;;;;;;;15.57;8.10;;;;;;;;;;5983325;24;20181;-89
2023/12/20 03:17:30;;;;;;;14.50;8.07;;;;;;;;;;5984635;24;20283;-90
2023/12/20 03:20:42;;;;;;;13.67;7.47;;;;;;;;;;5983078;24;20177;-90
2023/12/20 03:23:54;;;;;;;15.80;8.43;;;;;;;;;;5983175;24;20182;-89
2023/12/20 03:27:07;;;;;;;14.40;7.47;;;;;;;;;;5967927;24;20220;-86
2023/12/20 03:30:19;;;;;;;13.77;7.10;;;;;;;;;;5968359;23;20161;-88
2023/12/20 03:33:31;;;;;;;13.03;7.33;;;;;;;;;;5981686;23;20177;-89
2023/12/20 03:36:43;;;;;;;13.00;7.60;;;;;;;;;;5967828;24;20186;-88
2023/12/20 03:39:55;;;;;;;16.63;7.83;;;;;;;;;;5984141;24;20168;-89
2023/12/20 03:43:10;;;;;;;15.23;7.63;;;;;;;;;;6009354;23;20160;-91
2023/12/20 03:46:21;;;;;;;15.07;7.57;;;;;;;;;;6010736;23;20181;-90
2023/12/20 03:49:34;;;;;;;14.73;7.37;;;;;;;;;;5980313;23;20511;-90
2023/12/20 03:52:46;;;;;;;14.30;7.43;;;;;;;;;;6010394;23;20224;-90
2023/12/20 03:55:57;;;;;;;13.80;6.77;;;;;;;;;;5981601;24;20172;-89
2023/12/20 03:59:11;;;;;;;13.80;6.97;;;;;;;;;;6014657;23;20207;-87
2023/12/20 04:02:24;;;;;;;12.50;7.50;;;;;;;;;;6000501;23;20189;-90
2023/12/20 04:05:36;;;;;;;12.60;7.03;;;;;;;;;;5997243;23;20181;-86
2023/12/20 04:08:47;;;;;;;14.57;7.37;;;;;;;;;;5996838;24;20226;-86
2023/12/20 04:11:58;;;;;;;14.50;6.53;;;;;;;;;;6012404;23;20285;-87
2023/12/20 04:15:11;;;;;;;12.73;6.53;;;;;;;;;;6012466;23;20176;-88
2023/12/20 04:18:24;;;;;;;89.43;22.03;;;;;;;;;;6011591;23;20255;-87
2023/12/20 04:21:36;;;;;;;19.40;9.10;;;;;;;;;;5996072;24;20173;-88
2023/12/20 04:24:48;;;;;;;12.30;7.47;;;;;;;;;;6009982;23;20279;-89
2023/12/20 04:28:01;;;;;;;15.80;7.53;;;;;;;;;;6012669;23;20179;-90
2023/12/20 04:31:14;;;;;;;14.40;7.53;;;;;;;;;;5995641;24;20763;-89
2023/12/20 04:34:25;;;;;;;14.90;7.20;;;;;;;;;;6011713;23;20173;-91
2023/12/20 04:37:40;;;;;;;14.87;7.37;;;;;;;;;;5996827;24;20188;-90
2023/12/20 04:40:51;;;;;;;19.20;7.73;;;;;;;;;;6007227;23;20160;-89
2023/12/20 04:44:03;;;;;;;14.07;6.93;;;;;;;;;;5982415;24;20177;-87
2023/12/20 04:47:16;;;;;;;12.13;7.27;;;;;;;;;;5982754;24;20177;-88
2023/12/20 04:50:33;;;;;;;14.90;7.77;;;;;;;;;;5970839;23;20169;-87
2023/12/20 04:53:45;;;;;;;14.97;7.60;;;;;;;;;;5975077;24;20178;-87
2023/12/20 04:56:56;;;;;;;17.13;8.50;;;;;;;;;;5983202;23;20173;-86
2023/12/20 05:00:09;;;;;;;19.67;7.83;;;;;;;;;;5973486;23;20268;-89
2023/12/20 05:03:23;;;;;;;15.80;8.17;;;;;;;;;;5982998;24;20169;-85
2023/12/20 05:06:35;;;;;;;13.97;7.07;;;;;;;;;;5988360;23;20161;-89
2023/12/20 05:09:46;;;;;;;15.83;7.73;;;;;;;;;;5970411;23;20173;-86
2023/12/20 05:12:58;;;;;;;14.93;7.80;;;;;;;;;;5968640;24;20178;-87
2023/12/20 05:16:11;;;;;;;17.40;7.90;;;;;;;;;;5975447;24;20223;-86
2023/12/20 05:19:27;;;;;;;16.17;8.00;;;;;;;;;;5987473;24;20289;-87
2023/12/20 05:22:40;;;;;;;14.73;8.00;;;;;;;;;;5954964;23;20158;-91
2023/12/20 05:25:51;;;;;;;19.10;8.87;;;;;;;;;;5969784;23;20494;-88
2023/12/20 05:29:03;;;;;;;18.20;9.17;;;;;;;;;;5981696;24;20181;-91
2023/12/20 05:32:15;;;;;;;21.97;10.07;;;;;;;;;;5982678;24;20182;-87
2023/12/20 05:35:29;;;;;;;23.53;9.67;;;;;;;;;;5985056;24;20668;-87
2023/12/20 05:38:40;;;;;;;27.37;10.47;;;;;;;;;;5986432;24;20269;-90
2023/12/20 05:41:52;;;;;;;21.37;9.40;;;;;;;;;;5983265;23;20197;-87
2023/12/20 05:45:03;;;;;;;17.67;9.47;;;;;;;;;;5967992;24;20165;-89
2023/12/20 05:48:16;;;;;;;18.37;9.73;;;;;;;;;;5967428;24;20169;-89
2023/12/20 05:51:29;;;;;;;18.90;9.10;;;;;;;;;;5983510;24;20210;-90
2023/12/20 05:54:41;;;;;;;23.07;11.27;;;;;;;;;;5983470;24;20173;-89
2023/12/20 05:57:52;;;;;;;23.67;10.73;;;;;;;;;;5982779;24;20509;-86
2023/12/20 06:01:05;;;;;;;19.80;10.07;;;;;;;;;;5983409;23;20206;-89
2023/12/20 06:04:18;;;;;;;23.17;11.03;;;;;;;;;;5968932;23;20180;-90
2023/12/20 06:07:31;;;;;;;20.90;9.57;;;;;;;;;;5967667;24;20236;-90
2023/12/20 06:10:43;;;;;;;29.00;11.43;;;;;;;;;;5981723;24;20231;-90
2023/12/20 06:13:55;;;;;;;28.60;11.57;;;;;;;;;;5969661;24;20169;-90
2023/12/20 06:17:08;;;;;;;25.03;11.17;;;;;;;;;;5984688;24;20230;-87
2023/12/20 06:20:20;;;;;;;26.43;11.23;;;;;;;;;;5986793;24;20164;-91
2023/12/20 06:23:33;;;;;;;28.03;11.97;;;;;;;;;;5984213;23;20173;-88
2023/12/20 06:26:45;;;;;;;22.43;11.03;;;;;;;;;;5971761;23;20218;-89
2023/12/20 06:29:56;;;;;;;25.93;11.67;;;;;;;;;;5985771;24;20178;-90
2023/12/20 06:33:09;;;;;;;23.87;11.83;;;;;;;;;;5988103;24;20242;-90
2023/12/20 06:36:23;;;;;;;30.00;11.53;;;;;;;;;;5971885;24;20629;-91
2023/12/20 06:39:37;;;;;;;30.13;12.87;;;;;;;;;;5987691;24;20161;-84
2023/12/20 06:42:54;;;;;;;29.13;12.20;;;;;;;;;;5972064;23;20201;-87
2023/12/20 06:46:06;;;;;;;20.97;11.23;;;;;;;;;;5987275;24;20219;-88
2023/12/20 06:49:18;;;;;;;21.27;11.10;;;;;;;;;;5971914;24;20173;-89
2023/12/20 06:52:32;;;;;;;34.13;12.77;;;;;;;;;;5987748;24;20285;-87
2023/12/20 06:55:45;;;;;;;22.70;11.27;;;;;;;;;;5986837;24;20177;-89
2023/12/20 06:58:57;;;;;;;30.63;11.87;;;;;;;;;;5956813;24;20177;-87
2023/12/20 07:02:10;;;;;;;28.83;13.00;;;;;;;;;;5987768;24;20174;-88
2023/12/20 07:05:22;;;;;;;29.03;12.67;;;;;;;;;;5956532;24;20246;-89
2023/12/20 07:08:34;;;;;;;26.30;12.33;;;;;;;;;;5985452;23;20177;-88
2023/12/20 07:11:48;;;;;;;27.77;12.73;;;;;;;;;;5985907;23;20267;-90
2023/12/20 07:15:00;;;;;;;29.93;12.53;;;;;;;;;;5987407;24;20730;-88
2023/12/20 07:18:12;;;;;;;23.23;12.17;;;;;;;;;;5985204;24;20173;-87
2023/12/20 07:21:25;;;;;;;27.67;11.80;;;;;;;;;;5986631;24;20218;-90
2023/12/20 07:24:36;;;;;;;28.17;11.83;;;;;;;;;;5986021;24;20182;-91
2023/12/20 07:27:49;;;;;;;34.27;14.20;;;;;;;;;;5972054;23;20173;-88
2023/12/20 07:31:02;;;;;;;27.60;12.13;;;;;;;;;;5986831;24;20173;-87
2023/12/20 07:34:14;;;;;;;27.03;12.20;;;;;;;;;;5973597;23;20174;-86
2023/12/20 07:37:26;;;;;;;24.40;11.93;;;;;;;;;;5987598;23;20259;-84
2023/12/20 07:40:38;;;;;;;24.20;11.13;;;;;;;;;;5972855;24;20642;-89
2023/12/20 07:43:53;;;;;;;32.87;11.83;;;;;;;;;;5970315;24;20173;-86
2023/12/20 07:47:04;;;;;;;23.73;10.60;;;;;;;;;;5986743;24;20181;-89
2023/12/20 07:50:17;;;;;;;31.43;12.27;;;;;;;;;;5985957;24;20199;-88
2023/12/20 07:53:32;;;;;;;25.03;11.63;;;;;;;;;;5985540;24;20196;-88
2023/12/20 07:56:44;;;;;;;23.70;11.63;;;;;;;;;;5986164;23;20185;-89
2023/12/20 07:59:57;;;;;;;21.20;11.03;;;;;;;;;;5970173;24;20181;-88
2023/12/20 08:03:13;;;;;;;23.87;11.20;;;;;;;;;;5972956;24;20231;-88
2023/12/20 08:06:25;;;;;;;28.50;12.23;;;;;;;;;;5989465;23;20183;-88
2023/12/20 08:09:37;;;;;;;24.67;11.97;;;;;;;;;;5985974;23;20173;-88
2023/12/20 08:12:48;;;;;;;25.83;13.57;;;;;;;;;;5988729;24;20296;-91
2023/12/20 08:16:02;;;;;;;38.63;17.53;;;;;;;;;;5987064;24;20177;-89
2023/12/20 08:19:15;;;;;;;25.73;11.53;;;;;;;;;;5987268;24;20182;-87
2023/12/20 08:22:26;;;;;;;23.93;12.27;;;;;;;;;;5986000;23;20178;-89
2023/12/20 08:25:37;;;;;;;25.47;11.37;;;;;;;;;;5973197;24;20234;-88
2023/12/20 08:28:50;;;;;;;23.77;11.37;;;;;;;;;;5970713;24;20199;-90
2023/12/20 08:32:04;;;;;;;99.87;35.77;;;;;;;;;;5984867;24;20233;-87
2023/12/20 08:35:19;;;;;;;27.10;12.27;;;;;;;;;;5984878;24;20589;-90
2023/12/20 08:38:31;;;;;;;28.93;14.17;;;;;;;;;;5987617;24;20186;-88
2023/12/20 08:41:51;;;;;;;26.30;12.43;;;;;;;;;;5971595;24;20200;-90
2023/12/20 08:45:04;;;;;;;28.20;12.70;;;;;;;;;;5987257;24;20178;-87
2023/12/20 08:48:20;;;;;;;25.23;11.53;;;;;;;;;;5958723;24;20189;-90
2023/12/20 08:51:33;;;;;;;23.57;11.53;;;;;;;;;;5972276;24;20173;-88
2023/12/20 08:54:46;;;;;;;25.50;11.63;;;;;;;;;;5971986;23;20187;-88
2023/12/20 08:57:57;;;;;;;31.47;13.53;;;;;;;;;;5987564;23;20222;-87
2023/12/20 09:01:09;;;;;;;31.50;12.43;;;;;;;;;;5986549;24;20193;-88
2023/12/20 09:04:24;;;;;;;28.57;12.73;;;;;;;;;;5987365;24;20250;-89
2023/12/20 09:07:37;;;;;;;22.50;12.03;;;;;;;;;;5973755;23;20175;-91
2023/12/20 09:10:50;;;;;;;26.33;12.17;;;;;;;;;;5972077;24;20178;-88
2023/12/20 09:14:03;;;;;;;24.73;12.90;;;;;;;;;;5972163;23;20238;-89
2023/12/20 09:17:17;;;;;;;25.53;12.40;;;;;;;;;;5988525;24;20448;-86
2023/12/20 09:20:30;;;;;;;24.70;11.60;;;;;;;;;;5987154;24;20181;-88
2023/12/20 09:23:41;;;;;;;27.10;11.80;;;;;;;;;;5988388;24;20180;-88
2023/12/20 09:26:54;;;;;;;29.07;13.40;;;;;;;;;;5989130;23;20178;-89
2023/12/20 09:30:07;;;;;;;27.53;13.17;;;;;;;;;;5987279;23;20177;-89
2023/12/20 09:33:20;;;;;;;23.20;12.23;;;;;;;;;;5988615;23;20201;-93
2023/12/20 09:36:36;;;;;;;23.33;12.50;;;;;;;;;;5958162;23;20180;-88
2023/12/20 09:39:51;;;;;;;22.77;12.10;;;;;;;;;;5987864;23;20215;-89
2023/12/20 09:43:07;;;;;;;25.13;12.83;;;;;;;;;;6016397;23;20195;-88
2023/12/20 09:46:22;;;;;;;26.43;12.37;;;;;;;;;;6015486;23;20209;-87
2023/12/20 09:49:34;;;;;;;29.67;13.17;;;;;;;;;;6030716;23;20171;-90
2023/12/20 09:52:51;;;;;;;28.50;12.90;;;;;;;;;;6016543;23;20203;-88
2023/12/20 09:56:08;;;;;;;25.63;12.23;;;;;;;;;;6016721;23;20218;-90
2023/12/20 09:59:21;;;;;;;30.23;15.27;;;;;;;;;;6017212;23;20613;-89
2023/12/20 10:02:37;;;;;;;30.07;13.93;;;;;;;;;;6015658;23;20180;-88
2023/12/20 10:05:49;;;;;;;26.40;12.57;;;;;;;;;;6016963;23;20173;-90
2023/12/20 10:09:08;;;;;;;23.03;10.40;;;;;;;;;;6014702;23;20496;-90
2023/12/20 10:12:21;;;;;;;26.87;12.57;;;;;;;;;;6016906;23;20197;-87
2023/12/20 10:15:34;;;;;;;19.63;8.63;;;;;;;;;;6014055;23;20476;-91
2023/12/20 10:18:47;;;;;;;17.70;7.63;;;;;;;;;;6017321;23;20249;-91
2023/12/20 10:22:04;;;;;;;18.60;10.07;;;;;;;;;;6015952;23;20186;-91
2023/12/20 10:25:17;;;;;;;18.33;8.53;;;;;;;;;;6000903;23;20177;-90
2023/12/20 10:28:35;;;;;;;12.50;6.00;;;;;;;;;;6014980;23;20172;-88
2023/12/20 10:31:47;;;;;;;6.97;3.43;;;;;;;;;;6015125;23;20177;-88
2023/12/20 10:35:00;;;;;;;8.77;4.50;;;;;;;;;;6017449;23;20222;-87
2023/12/20 10:38:13;;;;;;;9.27;3.40;;;;;;;;;;6020100;23;20173;-86
2023/12/20 10:41:28;;;;;;;8.00;3.30;;;;;;;;;;6006234;23;20199;-89
2023/12/20 10:44:40;;;;;;;5.73;2.90;;;;;;;;;;5973541;23;20224;-88
2023/12/20 10:47:53;;;;;;;6.20;2.77;;;;;;;;;;5973358;23;20173;-89
2023/12/20 10:51:07;;;;;;;7.53;3.17;;;;;;;;;;5974441;23;20222;-91
2023/12/20 10:54:19;;;;;;;6.33;2.90;;;;;;;;;;5956812;23;20231;-91
2023/12/20 10:57:33;;;;;;;6.13;3.33;;;;;;;;;;5987280;23;20238;-87
2023/12/20 11:00:48;;;;;;;6.43;2.57;;;;;;;;;;5959784;23;20177;-90
2023/12/20 11:04:01;;;;;;;4.33;2.47;;;;;;;;;;5974406;23;20181;-88
2023/12/20 11:07:20;;;;;;;5.03;2.50;;;;;;;;;;5959577;23;20170;-89
2023/12/20 11:10:33;;;;;;;7.67;3.30;;;;;;;;;;5959312;24;20182;-89
2023/12/20 11:13:55;;;;;;;7.93;3.13;;;;;;;;;;5987901;23;20217;-90
2023/12/20 11:17:11;;;;;;;7.47;3.10;;;;;;;;;;5987794;23;20589;-88
2023/12/20 11:20:25;;;;;;;7.03;2.60;;;;;;;;;;5973200;23;20153;-89
2023/12/20 11:23:37;;;;;;;8.27;3.40;;;;;;;;;;5972802;23;20177;-87
2023/12/20 11:26:51;;;;;;;6.67;3.20;;;;;;;;;;5971434;23;20174;-88
2023/12/20 11:30:08;;;;;;;7.87;3.37;;;;;;;;;;5988153;23;20187;-90
2023/12/20 11:33:23;;;;;;;12.53;3.07;;;;;;;;;;5989094;23;20198;-88
2023/12/20 11:36:36;;;;;;;6.57;3.10;;;;;;;;;;5972940;23;20169;-87
2023/12/20 11:39:55;;;;;;;8.10;3.10;;;;;;;;;;5989564;23;20169;-90
2023/12/20 11:43:08;;;;;;;6.53;2.80;;;;;;;;;;6015282;23;20198;-88
2023/12/20 11:46:21;;;;;;;7.87;2.87;;;;;;;;;;6013255;23;20177;-87
2023/12/20 11:49:33;;;;;;;6.80;2.70;;;;;;;;;;6012451;23;20218;-87
2023/12/20 11:52:45;;;;;;;5.37;2.43;;;;;;;;;;6013295;23;20644;-91
2023/12/20 11:55:56;;;;;;;7.33;2.73;;;;;;;;;;6028983;23;20177;-90
2023/12/20 11:59:11;;;;;;;5.40;2.67;;;;;;;;;;6013558;23;20172;-87
2023/12/20 12:02:24;;;;;;;6.07;2.30;;;;;;;;;;6013500;23;20172;-88
2023/12/20 12:05:37;;;;;;;2.97;1.80;;;;;;;;;;6001573;24;20221;-88
2023/12/20 12:08:49;;;;;;;3.27;2.07;;;;;;;;;;6016269;23;20177;-90
2023/12/20 12:12:01;;;;;;;3.17;1.53;;;;;;;;;;6018626;23;20173;-87
2023/12/20 12:15:13;;;;;;;0.30;0.30;;;;;;;;;;6001316;24;20188;-88
2023/12/20 12:18:26;;;;;;;0.33;0.33;;;;;;;;;;5999281;24;20329;-88
2023/12/20 12:21:38;;;;;;;1.30;0.60;;;;;;;;;;6029493;23;20175;-87
2023/12/20 12:24:50;;;;;;;0.30;0.30;;;;;;;;;;6014498;23;20177;-88
2023/12/20 12:28:01;;;;;;;0.30;0.30;;;;;;;;;;6014665;23;20218;-87
2023/12/20 12:31:16;;;;;;;0.60;0.60;;;;;;;;;;6014859;23;20160;-89
2023/12/20 12:34:30;;;;;;;0.63;0.63;;;;;;;;;;5999328;24;20187;-88
2023/12/20 12:37:43;;;;;;;0.37;0.37;;;;;;;;;;6029816;23;20169;-89
2023/12/20 12:40:55;;;;;;;0.20;0.20;;;;;;;;;;6006771;23;20649;-88
2023/12/20 12:44:07;;;;;;;0.43;0.43;;;;;;;;;;5983138;24;20177;-88
2023/12/20 12:47:23;;;;;;;0.40;0.40;;;;;;;;;;5984476;24;20294;-87
2023/12/20 12:50:38;;;;;;;0.40;0.40;;;;;;;;;;5970644;23;20214;-91
2023/12/20 12:53:50;;;;;;;0.20;0.20;;;;;;;;;;5956484;23;20205;-93
2023/12/20 12:57:01;;;;;;;0.30;0.30;;;;;;;;;;5969834;24;20199;-88
2023/12/20 13:00:14;;;;;;;0.20;0.20;;;;;;;;;;5970137;24;20181;-90
2023/12/20 13:03:25;;;;;;;0.20;0.20;;;;;;;;;;5968793;23;20621;-86
2023/12/20 13:06:43;;;;;;;0.30;0.30;;;;;;;;;;5974924;23;20157;-87
2023/12/20 13:09:55;;;;;;;0.40;0.40;;;;;;;;;;5985452;24;20177;-90
2023/12/20 13:13:06;;;;;;;0.20;0.20;;;;;;;;;;5955371;24;20201;-89
2023/12/20 13:16:19;;;;;;;0.30;0.30;;;;;;;;;;5985390;24;20174;-87
2023/12/20 13:19:32;;;;;;;0.30;0.30;;;;;;;;;;5986050;23;20161;-89
2023/12/20 13:22:46;;;;;;;0.43;0.43;;;;;;;;;;5970198;24;20181;-87
2023/12/20 13:25:58;;;;;;;0.40;0.40;;;;;;;;;;5985853;23;20169;-86
2023/12/20 13:29:12;;;;;;;0.40;0.40;;;;;;;;;;5986368;24;20253;-90
2023/12/20 13:32:23;;;;;;;0.30;0.30;;;;;;;;;;5987056;23;20233;-87
2023/12/20 13:35:36;;;;;;;0.30;0.30;;;;;;;;;;5987984;23;20165;-89
2023/12/20 13:38:50;;;;;;;0.30;0.30;;;;;;;;;;5970273;23;20169;-87
2023/12/20 13:42:03;;;;;;;0.30;0.30;;;;;;;;;;5969968;23;20223;-89
2023/12/20 13:45:16;;;;;;;0.60;0.50;;;;;;;;;;5987562;23;20176;-87
2023/12/20 13:48:28;;;;;;;0.40;0.40;;;;;;;;;;5972128;24;20226;-90
2023/12/20 13:51:40;;;;;;;0.27;0.27;;;;;;;;;;5988508;23;20177;-87
2023/12/20 13:54:55;;;;;;;0.20;0.20;;;;;;;;;;5984987;23;20208;-87
2023/12/20 13:58:08;;;;;;;0.40;0.40;;;;;;;;;;5985100;23;20215;-89
2023/12/20 14:01:22;;;;;;;0.30;0.30;;;;;;;;;;5956994;23;20177;-90
2023/12/20 14:04:34;;;;;;;0.43;0.43;;;;;;;;;;5987683;23;20174;-87
2023/12/20 14:07:46;;;;;;;0.40;0.40;;;;;;;;;;5986709;23;20172;-89
2023/12/20 14:11:01;;;;;;;0.40;0.40;;;;;;;;;;5955974;23;20173;-90
2023/12/20 14:14:12;;;;;;;0.40;0.40;;;;;;;;;;5956263;23;20673;-89
2023/12/20 14:17:24;;;;;;;6.60;1.07;;;;;;;;;;5987421;23;20157;-90
2023/12/20 14:20:39;;;;;;;0.40;0.40;;;;;;;;;;5989886;23;20230;-87
2023/12/20 14:23:51;;;;;;;0.30;0.30;;;;;;;;;;5988770;23;20165;-86
2023/12/20 14:27:07;;;;;;;0.37;0.37;;;;;;;;;;5989087;23;20227;-91
2023/12/20 14:30:21;;;;;;;0.40;0.40;;;;;;;;;;5972165;24;20636;-91
2023/12/20 14:33:32;;;;;;;0.43;0.43;;;;;;;;;;5959646;23;20197;-88
2023/12/20 14:36:44;;;;;;;0.30;0.30;;;;;;;;;;5973820;24;20185;-88
2023/12/20 14:39:59;;;;;;;0.37;0.37;;;;;;;;;;5973948;24;20274;-89
2023/12/20 14:43:16;;;;;;;0.20;0.20;;;;;;;;;;6030518;23;20151;-91
2023/12/20 14:46:28;;;;;;;0.67;0.67;;;;;;;;;;6014338;23;20180;-91
2023/12/20 14:49:40;;;;;;;0.40;0.40;;;;;;;;;;6028496;23;20204;-87
2023/12/20 14:52:54;;;;;;;0.50;0.50;;;;;;;;;;6013035;23;20621;-90
2023/12/20 14:56:07;;;;;;;4.90;0.63;;;;;;;;;;6031867;23;20241;-89
2023/12/20 14:59:22;;;;;;;0.30;0.30;;;;;;;;;;6030838;23;20169;-89
2023/12/20 15:02:35;;;;;;;0.50;0.50;;;;;;;;;;5999509;24;20177;-91
2023/12/20 15:05:47;;;;;;;0.40;0.40;;;;;;;;;;6016231;23;20173;-89
2023/12/20 15:09:04;;;;;;;0.30;0.30;;;;;;;;;;6030873;23;20173;-87
2023/12/20 15:12:18;;;;;;;0.50;0.50;;;;;;;;;;6033838;23;20180;-89
2023/12/20 15:15:44;;;;;;;1.33;0.93;;;;;;;;;;6018626;23;20234;-89
2023/12/20 15:18:59;;;;;;;0.33;0.33;;;;;;;;;;6017692;23;20172;-88
2023/12/20 15:22:14;;;;;;;0.30;0.30;;;;;;;;;;6018466;23;20168;-89
2023/12/20 15:25:25;;;;;;;0.47;0.47;;;;;;;;;;6017189;23;20245;-90
2023/12/20 15:28:39;;;;;;;6.23;1.40;;;;;;;;;;6017918;23;20267;-90
2023/12/20 15:31:52;;;;;;;4.00;1.43;;;;;;;;;;6018090;23;20210;-89
2023/12/20 15:35:06;;;;;;;1.50;1.00;;;;;;;;;;6002646;23;20241;-89
2023/12/20 15:38:20;;;;;;;0.77;0.70;;;;;;;;;;6032966;23;20195;-89
2023/12/20 18:16:24;;;;;;;0.20;0.20;;;;;;;;;;6051827;23;20227;-89
2023/12/20 18:19:37;;;;;;;0.90;0.90;;;;;;;;;;6090690;23;20170;-89
2023/12/20 18:22:49;;;;;;;0.47;0.47;;;;;;;;;;6097272;23;20169;-90
2023/12/20 18:26:01;;;;;;;0.30;0.30;;;;;;;;;;6098064;23;20178;-89
2023/12/20 18:29:14;;;;;;;0.30;0.30;;;;;;;;;;6096243;23;20165;-89
2023/12/20 18:32:27;;;;;;;0.30;0.30;;;;;;;;;;6096582;23;20207;-91
2023/12/20 18:35:40;;;;;;;0.30;0.30;;;;;;;;;;6094727;23;20201;-88
2023/12/20 18:38:51;;;;;;;0.43;0.43;;;;;;;;;;6098147;23;20412;-90
2023/12/20 18:42:02;;;;;;;1.03;0.53;;;;;;;;;;6097456;23;20258;-89
2023/12/20 18:45:15;;;;;;;0.50;0.50;;;;;;;;;;6097832;23;20162;-89
2023/12/20 18:48:28;;;;;;;0.37;0.37;;;;;;;;;;6098212;23;20222;-86
2023/12/20 18:51:40;;;;;;;0.40;0.40;;;;;;;;;;6097568;23;20186;-90
2023/12/20 18:54:52;;;;;;;0.50;0.50;;;;;;;;;;6096134;23;20190;-89
2023/12/20 18:58:03;;;;;;;0.20;0.20;;;;;;;;;;6098785;23;20177;-91
2023/12/20 19:01:15;;;;;;;0.70;0.67;;;;;;;;;;6098985;23;20245;-90
2023/12/20 19:07:56;;;;;;;0.30;0.30;;;;;;;;;;6096051;23;20193;-89
2023/12/20 19:11:10;;;;;;;0.40;0.40;;;;;;;;;;6094868;23;20170;-90
2023/12/20 19:14:27;;;;;;;0.43;0.43;;;;;;;;;;6096249;23;20186;-89
2023/12/20 19:17:39;;;;;;;0.33;0.33;;;;;;;;;;6099107;23;20182;-92
2023/12/20 19:20:53;;;;;;;0.43;0.43;;;;;;;;;;6100283;23;20186;-88
2023/12/20 19:24:06;;;;;;;0.30;0.30;;;;;;;;;;6099982;23;20162;-88
2023/12/20 19:27:18;;;;;;;0.30;0.30;;;;;;;;;;6100282;23;20173;-92
2023/12/20 19:37:30;;;;;;;0.50;0.50;;;;;;;;;;6122090;23;20187;-89
2023/12/20 21:37:35;;;;;;;0.20;0.20;;;;;;;;;;6067267;23;20215;-91
2023/12/20 21:40:48;;;;;;;0.20;0.20;;;;;;;;;;6095728;23;20166;-89
2023/12/20 21:43:59;;;;;;;0.33;0.33;;;;;;;;;;6096345;23;20169;-89
2023/12/20 21:47:10;;;;;;;2.33;0.40;;;;;;;;;;6096938;23;20166;-90
2023/12/20 21:50:23;;;;;;;0.30;0.30;;;;;;;;;;6103707;23;20231;-89
2023/12/20 21:53:36;;;;;;;0.30;0.30;;;;;;;;;;6097190;23;20161;-91
2023/12/20 21:56:50;;;;;;;0.20;0.20;;;;;;;;;;6098462;23;20242;-90
2023/12/20 22:00:02;;;;;;;0.50;0.50;;;;;;;;;;6100620;23;20177;-88
2023/12/20 22:03:19;;;;;;;0.30;0.30;;;;;;;;;;6118320;23;20170;-89
2023/12/20 22:06:41;;;;;;;0.53;0.53;;;;;;;;;;6094511;23;20165;-87
2023/12/20 22:09:55;;;;;;;0.30;0.30;;;;;;;;;;6095001;23;20170;-89
2023/12/20 22:13:06;;;;;;;0.30;0.30;;;;;;;;;;6093805;23;20173;-91
2023/12/20 22:16:17;;;;;;;2.43;0.60;;;;;;;;;;6093348;23;20273;-91
2023/12/20 22:19:28;;;;;;;0.50;0.50;;;;;;;;;;6091747;23;20165;-89
2023/12/20 22:22:40;;;;;;;0.40;0.40;;;;;;;;;;6094483;23;20174;-90
2023/12/20 22:25:55;;;;;;;0.30;0.30;;;;;;;;;;6093822;23;20203;-91
2023/12/20 22:29:06;;;;;;;0.50;0.50;;;;;;;;;;6093058;23;20174;-91
2023/12/20 22:32:18;;;;;;;0.50;0.50;;;;;;;;;;6092628;23;20242;-87
2023/12/20 22:35:31;;;;;;;0.40;0.40;;;;;;;;;;6092946;23;20264;-89
2023/12/20 22:38:45;;;;;;;0.20;0.20;;;;;;;;;;6092828;23;20174;-90
2023/12/20 22:42:00;;;;;;;0.30;0.30;;;;;;;;;;6093697;23;20154;-89
2023/12/20 22:45:12;;;;;;;7.50;1.60;;;;;;;;;;6093808;23;20207;-90
2023/12/20 22:48:23;;;;;;;5.23;1.97;;;;;;;;;;6093569;23;20170;-91
2023/12/20 22:51:35;;;;;;;2.83;1.40;;;;;;;;;;6093029;23;20174;-87
2023/12/20 22:54:55;;;;;;;4.37;1.60;;;;;;;;;;6093617;23;20193;-90
2023/12/20 22:58:15;;;;;;;5.93;1.97;;;;;;;;;;6094368;23;20178;-89
2023/12/20 23:01:26;;;;;;;6.37;2.10;;;;;;;;;;6094215;23;20177;-90
2023/12/20 23:04:40;;;;;;;7.17;2.00;;;;;;;;;;6092923;23;20189;-90
2023/12/20 23:07:51;;;;;;;9.27;2.97;;;;;;;;;;6092231;23;20170;-92
2023/12/20 23:11:04;;;;;;;4.60;1.63;;;;;;;;;;6092030;23;20177;-88
2023/12/20 23:14:17;;;;;;;3.20;1.20;;;;;;;;;;6098438;23;20157;-91
2023/12/20 23:17:33;;;;;;;4.60;1.53;;;;;;;;;;6086675;23;20182;-88
2023/12/20 23:20:46;;;;;;;5.23;1.73;;;;;;;;;;6095400;23;20166;-90
2023/12/20 23:23:57;;;;;;;6.07;1.93;;;;;;;;;;6092484;23;20217;-89
2023/12/20 23:27:08;;;;;;;5.23;1.70;;;;;;;;;;6092860;23;20157;-90
2023/12/20 23:30:22;;;;;;;2.10;1.23;;;;;;;;;;6094156;23;20162;-90
2023/12/20 23:33:33;;;;;;;3.27;1.37;;;;;;;;;;6092859;23;20174;-90
2023/12/20 23:36:46;;;;;;;3.87;1.30;;;;;;;;;;6094625;23;20288;-88
2023/12/20 23:39:58;;;;;;;5.00;1.20;;;;;;;;;;6095890;23;20167;-87
2023/12/20 23:43:10;;;;;;;3.10;1.30;;;;;;;;;;6096013;23;20589;-89
2023/12/20 23:46:23;;;;;;;3.53;1.40;;;;;;;;;;6098385;23;20210;-90